createdAt,value
2019-01-27T00:00:53.308Z,94142.56
2019-01-27T00:03:19.960Z,94142.19
2019-01-27T00:05:46.612Z,94141.41
2019-01-27T00:08:13.776Z,94145.09
2019-01-27T00:10:39.932Z,94152.58
2019-01-27T00:13:06.586Z,94153.75
2019-01-27T00:15:33.284Z,94156.00
2019-01-27T00:17:59.925Z,94161.84
2019-01-27T00:20:26.661Z,94161.81
2019-01-27T00:22:53.305Z,94158.17
2019-01-27T00:25:19.959Z,94170.44
2019-01-27T00:27:46.605Z,94175.45
2019-01-27T00:30:13.257Z,94174.63
2019-01-27T00:32:39.903Z,94168.89
2019-01-27T00:35:06.592Z,94178.61
2019-01-27T00:37:33.229Z,94181.42
2019-01-27T00:39:59.866Z,94185.77
2019-01-27T00:42:26.537Z,94182.92
2019-01-27T00:44:53.183Z,94182.25
2019-01-27T00:47:19.878Z,94181.05
2019-01-27T00:49:46.588Z,94186.26
2019-01-27T00:52:13.323Z,94186.78
2019-01-27T00:54:40.009Z,94189.14
2019-01-27T00:57:06.672Z,94193.46
2019-01-27T00:59:33.313Z,94199.66
2019-01-27T01:01:59.963Z,94197.02
2019-01-27T01:04:26.593Z,94195.75
2019-01-27T01:06:53.285Z,94190.64
2019-01-27T01:09:19.956Z,94188.51
2019-01-27T01:11:46.605Z,94184.13
2019-01-27T01:14:13.256Z,94187.42
2019-01-27T01:16:40.008Z,94186.89
2019-01-27T01:19:06.647Z,94189.94
2019-01-27T01:21:33.340Z,94184.53
2019-01-27T01:23:59.975Z,94187.91
2019-01-27T01:26:26.619Z,94182.80
2019-01-27T01:28:53.282Z,94184.50
2019-01-27T01:31:19.967Z,94185.84
2019-01-27T01:33:46.610Z,94190.88
2019-01-27T01:36:13.297Z,94197.25
2019-01-27T01:38:39.950Z,94189.78
2019-01-27T01:41:06.620Z,94197.73
2019-01-27T01:43:33.260Z,94208.77
2019-01-27T01:45:59.898Z,94203.92
2019-01-27T01:48:26.587Z,94207.38
2019-01-27T01:50:53.238Z,94209.78
2019-01-27T01:53:19.883Z,94208.95
2019-01-27T01:55:46.557Z,94205.50
2019-01-27T01:58:13.233Z,94204.86
2019-01-27T02:00:39.878Z,94197.40
2019-01-27T02:03:06.534Z,94191.47
2019-01-27T02:05:33.173Z,94190.91
2019-01-27T02:07:59.807Z,94189.75
2019-01-27T02:10:26.474Z,94188.47
2019-01-27T02:12:53.149Z,94191.40
2019-01-27T02:15:19.838Z,94180.11
2019-01-27T02:17:46.477Z,94186.11
2019-01-27T02:20:13.160Z,94187.42
2019-01-27T02:22:39.846Z,94188.89
2019-01-27T02:25:06.495Z,94192.41
2019-01-27T02:27:33.180Z,94187.80
2019-01-27T02:29:59.856Z,94189.18
2019-01-27T02:32:26.519Z,94195.16
2019-01-27T02:34:53.161Z,94186.48
2019-01-27T02:37:19.849Z,94195.74
2019-01-27T02:39:46.577Z,94192.37
2019-01-27T02:42:13.176Z,94202.02
2019-01-27T02:44:39.814Z,94204.86
2019-01-27T02:47:06.550Z,94205.72
2019-01-27T02:49:33.192Z,94184.30
2019-01-27T02:51:59.865Z,94210.22
2019-01-27T02:54:26.506Z,94215.96
2019-01-27T02:56:53.140Z,94209.28
2019-01-27T02:59:19.967Z,94211.05
2019-01-27T03:01:46.560Z,94204.41
2019-01-27T03:04:13.241Z,94210.72
2019-01-27T03:06:39.875Z,94215.25
2019-01-27T03:09:06.530Z,94222.67
2019-01-27T03:11:33.172Z,94230.73
2019-01-27T03:13:59.850Z,94226.47
2019-01-27T03:16:26.586Z,94232.02
2019-01-27T03:18:53.220Z,94219.53
2019-01-27T03:21:19.882Z,94220.91
2019-01-27T03:23:46.532Z,94224.70
2019-01-27T03:26:13.200Z,94226.35
2019-01-27T03:28:39.840Z,94223.98
2019-01-27T03:31:06.494Z,94218.44
2019-01-27T03:33:33.132Z,94233.41
2019-01-27T03:35:59.817Z,94234.14
2019-01-27T03:38:26.552Z,94226.11
2019-01-27T03:40:53.244Z,94218.95
2019-01-27T03:43:19.881Z,94218.35
2019-01-27T03:45:46.681Z,94213.86
2019-01-27T03:48:13.341Z,94217.75
2019-01-27T03:50:39.993Z,94225.90
2019-01-27T03:53:06.668Z,94220.83
2019-01-27T03:55:33.308Z,94219.25
2019-01-27T03:57:59.961Z,94213.78
2019-01-27T04:00:26.597Z,94211.34
2019-01-27T04:02:53.339Z,94215.21
2019-01-27T04:05:19.990Z,94222.30
2019-01-27T04:07:46.645Z,94215.06
2019-01-27T04:10:13.281Z,94216.37
2019-01-27T04:12:39.918Z,94223.72
2019-01-27T04:15:06.564Z,94219.22
2019-01-27T04:17:33.223Z,94212.88
2019-01-27T04:19:59.872Z,94212.62
2019-01-27T04:22:26.514Z,94216.14
2019-01-27T04:24:53.162Z,94217.89
2019-01-27T04:27:19.800Z,94219.24
2019-01-27T04:29:46.459Z,94213.92
2019-01-27T04:32:13.110Z,94216.66
2019-01-27T04:34:39.744Z,94220.80
2019-01-27T04:37:06.384Z,94226.02
2019-01-27T04:39:33.038Z,94220.73
2019-01-27T04:41:59.682Z,94222.86
2019-01-27T04:44:26.320Z,94240.70
2019-01-27T04:46:52.968Z,94242.09
2019-01-27T04:49:19.614Z,94229.23
2019-01-27T04:51:46.242Z,94235.25
2019-01-27T04:54:12.910Z,94233.11
2019-01-27T04:56:39.558Z,94231.72
2019-01-27T04:59:06.221Z,94236.48
2019-01-27T05:01:32.857Z,94230.30
2019-01-27T05:03:59.540Z,94229.33
2019-01-27T05:06:26.202Z,94239.22
2019-01-27T05:08:52.840Z,94231.87
2019-01-27T05:11:19.475Z,94233.55
2019-01-27T05:13:46.142Z,94244.31
2019-01-27T05:16:12.855Z,94250.66
2019-01-27T05:18:39.496Z,94247.77
2019-01-27T05:21:06.154Z,94245.64
2019-01-27T05:23:32.791Z,94249.09
2019-01-27T05:25:59.440Z,94251.03
2019-01-27T05:28:26.082Z,94252.91
2019-01-27T05:30:52.725Z,94255.34
2019-01-27T05:33:19.375Z,94259.73
2019-01-27T05:35:46.013Z,94253.92
2019-01-27T05:38:12.662Z,94248.45
2019-01-27T05:40:39.306Z,94247.81
2019-01-27T05:43:05.962Z,94248.55
2019-01-27T05:45:32.609Z,94252.99
2019-01-27T05:47:59.254Z,94252.69
2019-01-27T05:50:25.904Z,94253.10
2019-01-27T05:52:52.553Z,94257.09
2019-01-27T05:55:19.207Z,94251.39
2019-01-27T05:57:45.854Z,94256.76
2019-01-27T06:00:12.498Z,94258.62
2019-01-27T06:02:39.145Z,94248.61
2019-01-27T06:05:05.810Z,94248.92
2019-01-27T06:07:32.450Z,94251.06
2019-01-27T06:09:59.096Z,94257.18
2019-01-27T06:12:25.745Z,94259.95
2019-01-27T06:14:52.397Z,94263.10
2019-01-27T06:17:19.036Z,94264.60
2019-01-27T06:19:45.703Z,94267.56
2019-01-27T06:22:12.355Z,94273.12
2019-01-27T06:24:38.991Z,94275.89
2019-01-27T06:27:05.629Z,94266.30
2019-01-27T06:29:32.282Z,94254.97
2019-01-27T06:31:58.921Z,94260.48
2019-01-27T06:34:25.564Z,94258.17
2019-01-27T06:36:52.210Z,94252.42
2019-01-27T06:39:18.850Z,94253.78
2019-01-27T06:41:45.502Z,94248.77
2019-01-27T06:44:12.144Z,94250.52
2019-01-27T06:46:38.792Z,94250.00
2019-01-27T06:49:05.430Z,94249.30
2019-01-27T06:51:32.072Z,94244.61
2019-01-27T06:53:58.719Z,94252.04
2019-01-27T06:56:25.450Z,94250.91
2019-01-27T06:58:52.095Z,94252.59
2019-01-27T07:01:18.839Z,94249.00
2019-01-27T07:03:45.481Z,94254.81
2019-01-27T07:06:12.135Z,94257.05
2019-01-27T07:08:38.790Z,94251.98
2019-01-27T07:11:05.434Z,94256.65
2019-01-27T07:13:32.081Z,94258.02
2019-01-27T07:15:58.778Z,94259.14
2019-01-27T07:18:25.388Z,94261.63
2019-01-27T07:20:52.020Z,94263.01
2019-01-27T07:23:18.667Z,94264.11
2019-01-27T07:25:45.307Z,94261.37
2019-01-27T07:28:11.951Z,94265.12
2019-01-27T07:30:38.600Z,94265.08
2019-01-27T07:33:05.235Z,94251.70
2019-01-27T07:35:31.888Z,94259.84
2019-01-27T07:37:58.527Z,94258.12
2019-01-27T07:40:25.177Z,94255.80
2019-01-27T07:42:51.834Z,94258.84
2019-01-27T07:45:18.782Z,94255.98
2019-01-27T07:47:45.247Z,94249.98
2019-01-27T07:50:11.895Z,94249.24
2019-01-27T07:52:38.537Z,94249.05
2019-01-27T07:55:05.206Z,94245.56
2019-01-27T07:57:31.982Z,94253.70
2019-01-27T07:59:58.635Z,94250.30
2019-01-27T08:02:25.287Z,94252.47
2019-01-27T08:04:51.924Z,94250.52
2019-01-27T08:07:18.573Z,94242.52
2019-01-27T08:09:45.217Z,94247.84
2019-01-27T08:12:11.855Z,94242.16
2019-01-27T08:14:38.530Z,94245.27
2019-01-27T08:17:05.173Z,94250.11
2019-01-27T08:19:31.820Z,94260.45
2019-01-27T08:21:58.462Z,94261.50
2019-01-27T08:24:25.151Z,94262.63
2019-01-27T08:26:51.789Z,94258.56
2019-01-27T08:29:18.439Z,94259.16
2019-01-27T08:31:45.085Z,94249.83
2019-01-27T08:34:11.727Z,94250.05
2019-01-27T08:36:38.385Z,94252.83
2019-01-27T08:39:05.066Z,94255.42
2019-01-27T08:41:31.746Z,94256.46
2019-01-27T08:43:58.396Z,94253.79
2019-01-27T08:46:25.054Z,94259.16
2019-01-27T08:48:51.695Z,94248.36
2019-01-27T08:51:18.390Z,94244.75
2019-01-27T08:53:45.112Z,94241.33
2019-01-27T08:56:11.770Z,94244.89
2019-01-27T08:58:38.414Z,94247.16
2019-01-27T09:01:05.106Z,94247.48
2019-01-27T09:03:31.742Z,94246.37
2019-01-27T09:05:58.385Z,94242.85
2019-01-27T09:08:25.027Z,94249.42
2019-01-27T09:10:51.684Z,94244.62
2019-01-27T09:13:18.334Z,94239.43
2019-01-27T09:15:45.016Z,94248.44
2019-01-27T09:18:11.654Z,94244.11
2019-01-27T09:20:38.296Z,94247.71
2019-01-27T09:23:04.954Z,94248.30
2019-01-27T09:25:31.601Z,94249.42
2019-01-27T09:27:58.252Z,94250.48
2019-01-27T09:30:24.895Z,94252.84
2019-01-27T09:32:52.957Z,94254.39
2019-01-27T09:35:18.181Z,94254.77
2019-01-27T09:37:44.839Z,94261.98
2019-01-27T09:40:11.493Z,94251.23
2019-01-27T09:42:38.145Z,94260.33
2019-01-27T09:45:04.783Z,94252.55
2019-01-27T09:47:31.465Z,94254.80
2019-01-27T09:49:58.129Z,94244.77
2019-01-27T09:52:24.773Z,94242.09
2019-01-27T09:54:51.411Z,94242.73
2019-01-27T09:57:18.063Z,94248.32
2019-01-27T09:59:44.711Z,94243.51
2019-01-27T10:02:11.346Z,94241.84
2019-01-27T10:04:38.033Z,94242.12
2019-01-27T10:07:04.672Z,94234.98
2019-01-27T10:09:31.340Z,94230.05
2019-01-27T10:11:57.996Z,94230.99
2019-01-27T10:14:24.642Z,94223.74
2019-01-27T10:16:51.298Z,94228.95
2019-01-27T10:19:17.949Z,94224.05
2019-01-27T10:21:44.596Z,94219.59
2019-01-27T10:24:11.253Z,94218.77
2019-01-27T10:26:37.902Z,94219.14
2019-01-27T10:29:04.536Z,94213.20
2019-01-27T10:31:31.183Z,94217.66
2019-01-27T10:33:57.823Z,94218.95
2019-01-27T10:36:24.471Z,94208.84
2019-01-27T10:38:51.184Z,94217.19
2019-01-27T10:41:17.834Z,94213.50
2019-01-27T10:43:44.479Z,94208.84
2019-01-27T10:46:11.169Z,94208.11
2019-01-27T10:48:37.815Z,94200.98
2019-01-27T10:51:04.495Z,94199.75
2019-01-27T10:53:34.979Z,94192.91
2019-01-27T10:55:57.832Z,94187.98
2019-01-27T10:58:24.474Z,94184.08
2019-01-27T11:00:51.125Z,94182.88
2019-01-27T11:03:17.770Z,94181.78
2019-01-27T11:05:44.413Z,94176.86
2019-01-27T11:08:11.111Z,94174.83
2019-01-27T11:10:37.732Z,94176.22
2019-01-27T11:13:04.370Z,94172.69
2019-01-27T11:15:31.009Z,94177.07
2019-01-27T11:17:57.658Z,94176.40
2019-01-27T11:20:24.297Z,94166.88
2019-01-27T11:22:50.942Z,94167.34
2019-01-27T11:25:17.581Z,94166.12
2019-01-27T11:27:44.243Z,94159.71
2019-01-27T11:30:10.875Z,94161.20
2019-01-27T11:32:37.556Z,94154.73
2019-01-27T11:35:04.168Z,94155.48
2019-01-27T11:37:30.854Z,94152.33
2019-01-27T11:39:57.510Z,94149.99
2019-01-27T11:42:24.225Z,94147.88
2019-01-27T11:44:50.867Z,94149.99
2019-01-27T11:47:17.551Z,94142.50
2019-01-27T11:49:44.194Z,94149.08
2019-01-27T11:52:15.461Z,94142.67
2019-01-27T11:54:37.480Z,94127.74
2019-01-27T11:57:04.135Z,94127.10
2019-01-27T11:59:30.817Z,94126.19
2019-01-27T12:01:57.458Z,94123.88
2019-01-27T12:04:24.099Z,94127.68
2019-01-27T12:06:50.758Z,94124.98
2019-01-27T12:09:17.513Z,94118.02
2019-01-27T12:11:44.268Z,94116.63
2019-01-27T12:14:10.922Z,94116.25
2019-01-27T12:16:37.603Z,94116.73
2019-01-27T12:19:04.245Z,94108.37
2019-01-27T12:21:30.966Z,94106.07
2019-01-27T12:23:57.619Z,94101.70
2019-01-27T12:26:24.274Z,94090.20
2019-01-27T12:28:50.910Z,94083.24
2019-01-27T12:31:17.554Z,94081.95
2019-01-27T12:33:44.194Z,94086.60
2019-01-27T12:36:10.857Z,94089.44
2019-01-27T12:38:37.507Z,94085.53
2019-01-27T12:41:04.170Z,94087.92
2019-01-27T12:43:30.825Z,94084.75
2019-01-27T12:45:57.502Z,94089.52
2019-01-27T12:48:24.140Z,94074.02
2019-01-27T12:50:50.821Z,94084.80
2019-01-27T12:53:17.465Z,94089.53
2019-01-27T12:55:44.154Z,94083.05
2019-01-27T12:58:10.794Z,94079.37
2019-01-27T13:00:37.450Z,94079.92
2019-01-27T13:03:04.098Z,94079.72
2019-01-27T13:05:30.794Z,94077.69
2019-01-27T13:07:57.428Z,94082.62
2019-01-27T13:10:24.076Z,94081.23
2019-01-27T13:12:50.717Z,94076.41
2019-01-27T13:15:18.754Z,94074.55
2019-01-27T13:17:44.013Z,94080.41
2019-01-27T13:20:10.648Z,94079.93
2019-01-27T13:22:37.287Z,94074.64
2019-01-27T13:25:03.930Z,94076.13
2019-01-27T13:27:30.591Z,94076.30
2019-01-27T13:29:57.282Z,94074.16
2019-01-27T13:32:23.965Z,94066.28
2019-01-27T13:34:50.619Z,94067.58
2019-01-27T13:37:17.269Z,94070.55
2019-01-27T13:39:43.960Z,94065.84
2019-01-27T13:42:10.616Z,94064.23
2019-01-27T13:44:37.262Z,94060.06
2019-01-27T13:47:03.945Z,94059.42
2019-01-27T13:49:30.593Z,94054.22
2019-01-27T13:51:57.239Z,94057.92
2019-01-27T13:54:23.892Z,94056.91
2019-01-27T13:56:50.532Z,94050.97
2019-01-27T13:59:17.184Z,94053.95
2019-01-27T14:01:43.822Z,94050.15
2019-01-27T14:04:10.506Z,94048.83
2019-01-27T14:06:37.147Z,94045.88
2019-01-27T14:09:03.847Z,94049.68
2019-01-27T14:11:30.598Z,94043.20
2019-01-27T14:13:57.246Z,94040.85
2019-01-27T14:16:23.885Z,94050.78
2019-01-27T14:18:50.553Z,94051.53
2019-01-27T14:21:17.247Z,94049.03
2019-01-27T14:23:43.924Z,94047.16
2019-01-27T14:26:10.557Z,94044.22
2019-01-27T14:28:37.192Z,94049.31
2019-01-27T14:31:03.842Z,94049.94
2019-01-27T14:33:30.537Z,94048.75
2019-01-27T14:35:57.182Z,94052.64
2019-01-27T14:38:23.843Z,94049.38
2019-01-27T14:40:50.481Z,94053.81
2019-01-27T14:43:17.134Z,94052.27
2019-01-27T14:45:43.763Z,94047.52
2019-01-27T14:48:10.419Z,94044.81
2019-01-27T14:50:37.062Z,94047.78
2019-01-27T14:53:03.709Z,94051.02
2019-01-27T14:55:30.352Z,94050.90
2019-01-27T14:57:57.933Z,94063.41
2019-01-27T15:00:23.668Z,94063.41
2019-01-27T15:02:50.351Z,94059.12
2019-01-27T15:05:16.997Z,94066.45
2019-01-27T15:07:43.683Z,94070.08
2019-01-27T15:10:10.375Z,94072.36
2019-01-27T15:12:37.046Z,94071.08
2019-01-27T15:15:03.702Z,94079.67
2019-01-27T15:17:30.342Z,94068.73
2019-01-27T15:19:56.989Z,94080.22
2019-01-27T15:22:23.812Z,94079.86
2019-01-27T15:24:50.536Z,94077.78
2019-01-27T15:27:17.181Z,94079.17
2019-01-27T15:29:43.888Z,94087.70
2019-01-27T15:32:10.524Z,94082.98
2019-01-27T15:34:37.171Z,94072.95
2019-01-27T15:37:03.804Z,94075.07
2019-01-27T15:39:30.442Z,94074.41
2019-01-27T15:41:57.154Z,94073.50
2019-01-27T15:44:23.798Z,94077.41
2019-01-27T15:46:50.444Z,94082.75
2019-01-27T15:49:17.091Z,94085.14
2019-01-27T15:51:43.730Z,94089.41
2019-01-27T15:54:10.382Z,94089.02
2019-01-27T15:56:37.068Z,94090.32
2019-01-27T15:59:03.717Z,94094.11
2019-01-27T16:01:30.392Z,94097.94
2019-01-27T16:03:57.035Z,94097.19
2019-01-27T16:06:23.718Z,94093.75
2019-01-27T16:08:50.397Z,94099.01
2019-01-27T16:11:17.084Z,94094.77
2019-01-27T16:13:43.729Z,94102.08
2019-01-27T16:16:10.374Z,94106.63
2019-01-27T16:18:38.377Z,94109.03
2019-01-27T16:21:03.707Z,94109.56
2019-01-27T16:23:30.359Z,94111.97
2019-01-27T16:25:56.999Z,94110.66
2019-01-27T16:28:23.686Z,94119.91
2019-01-27T16:30:50.329Z,94115.09
2019-01-27T16:33:16.962Z,94115.84
2019-01-27T16:35:43.613Z,94121.03
2019-01-27T16:38:10.288Z,94124.45
2019-01-27T16:40:39.664Z,94122.88
2019-01-27T16:43:03.618Z,94125.28
2019-01-27T16:45:30.263Z,94125.09
2019-01-27T16:47:56.905Z,94126.96
2019-01-27T16:50:23.593Z,94129.91
2019-01-27T16:52:50.224Z,94137.75
2019-01-27T16:55:16.917Z,94129.80
2019-01-27T16:57:43.564Z,94139.17
2019-01-27T17:00:10.259Z,94139.92
2019-01-27T17:02:36.929Z,94147.21
2019-01-27T17:05:03.607Z,94141.55
2019-01-27T17:07:30.302Z,94139.59
2019-01-27T17:09:56.946Z,94142.75
2019-01-27T17:12:23.589Z,94147.10
2019-01-27T17:14:50.268Z,94149.30
2019-01-27T17:17:16.906Z,94144.83
2019-01-27T17:19:44.497Z,94140.41
2019-01-27T17:22:10.243Z,94141.23
2019-01-27T17:24:38.210Z,94146.14
2019-01-27T17:27:03.544Z,94147.42
2019-01-27T17:29:30.237Z,94139.70
2019-01-27T17:31:56.893Z,94136.38
2019-01-27T17:34:23.536Z,94127.39
2019-01-27T17:36:50.231Z,94132.87
2019-01-27T17:39:16.914Z,94132.02
2019-01-27T17:41:43.594Z,94130.06
2019-01-27T17:44:10.215Z,94130.52
2019-01-27T17:46:36.870Z,94136.82
2019-01-27T17:49:03.501Z,94135.97
2019-01-27T17:51:30.182Z,94140.16
2019-01-27T17:53:56.842Z,94142.56
2019-01-27T17:56:23.482Z,94147.02
2019-01-27T17:58:54.352Z,94151.24
2019-01-27T18:01:16.775Z,94155.33
2019-01-27T18:03:43.419Z,94146.78
2019-01-27T18:06:10.069Z,94149.85
2019-01-27T18:08:36.716Z,94153.91
2019-01-27T18:11:03.352Z,94157.89
2019-01-27T18:13:30.011Z,94156.39
2019-01-27T18:15:56.644Z,94151.32
2019-01-27T18:18:23.281Z,94150.84
2019-01-27T18:20:49.935Z,94150.34
2019-01-27T18:23:16.584Z,94148.33
2019-01-27T18:25:43.218Z,94156.80
2019-01-27T18:28:09.848Z,94158.82
2019-01-27T18:30:36.528Z,94167.34
2019-01-27T18:33:03.287Z,94170.62
2019-01-27T18:35:29.938Z,94171.10
2019-01-27T18:37:56.587Z,94169.61
2019-01-27T18:40:23.216Z,94167.95
2019-01-27T18:42:49.904Z,94172.38
2019-01-27T18:45:16.555Z,94175.58
2019-01-27T18:47:43.203Z,94172.17
2019-01-27T18:50:09.840Z,94173.77
2019-01-27T18:52:36.560Z,94169.09
2019-01-27T18:55:03.204Z,94180.39
2019-01-27T18:57:29.850Z,94183.78
2019-01-27T18:59:56.504Z,94180.90
2019-01-27T19:02:23.145Z,94174.83
2019-01-27T19:04:49.782Z,94176.67
2019-01-27T19:07:16.432Z,94182.04
2019-01-27T19:09:43.076Z,94176.19
2019-01-27T19:12:09.712Z,94175.66
2019-01-27T19:14:36.382Z,94173.11
2019-01-27T19:17:03.020Z,94177.95
2019-01-27T19:19:29.791Z,94182.87
2019-01-27T19:21:56.325Z,94178.48
2019-01-27T19:24:22.966Z,94174.77
2019-01-27T19:26:49.613Z,94177.09
2019-01-27T19:29:16.299Z,94171.51
2019-01-27T19:31:42.935Z,94161.07
2019-01-27T19:34:09.673Z,94170.30
2019-01-27T19:36:36.334Z,94164.12
2019-01-27T19:39:02.979Z,94155.45
2019-01-27T19:41:29.622Z,94156.44
2019-01-27T19:43:56.279Z,94159.70
2019-01-27T19:46:22.913Z,94152.34
2019-01-27T19:48:49.566Z,94151.66
2019-01-27T19:51:16.254Z,94148.70
2019-01-27T19:53:42.861Z,94144.76
2019-01-27T19:56:09.497Z,94150.69
2019-01-27T19:58:36.152Z,94144.68
2019-01-27T20:01:02.802Z,94139.80
2019-01-27T20:03:29.446Z,94136.84
2019-01-27T20:05:56.114Z,94139.08
2019-01-27T20:08:22.749Z,94134.17
2019-01-27T20:10:49.412Z,94126.05
2019-01-27T20:13:16.081Z,94125.09
2019-01-27T20:15:42.716Z,94124.35
2019-01-27T20:18:09.368Z,94115.78
2019-01-27T20:20:36.007Z,94116.58
2019-01-27T20:23:02.702Z,94119.63
2019-01-27T20:25:29.292Z,94112.52
2019-01-27T20:27:55.934Z,94109.80
2019-01-27T20:30:22.569Z,94111.67
2019-01-27T20:32:49.213Z,94110.03
2019-01-27T20:35:15.862Z,94110.73
2019-01-27T20:37:42.561Z,94106.27
2019-01-27T20:40:09.213Z,94111.12
2019-01-27T20:42:35.999Z,94102.82
2019-01-27T20:45:02.644Z,94104.23
2019-01-27T20:47:29.293Z,94096.20
2019-01-27T20:49:55.936Z,94094.25
2019-01-27T20:52:22.586Z,94100.18
2019-01-27T20:54:49.230Z,94099.09
2019-01-27T20:57:15.870Z,94098.34
2019-01-27T20:59:42.522Z,94104.64
2019-01-27T21:02:09.172Z,94093.08
2019-01-27T21:04:35.817Z,94087.77
2019-01-27T21:07:02.458Z,94079.12
2019-01-27T21:09:29.099Z,94077.53
2019-01-27T21:11:55.748Z,94081.90
2019-01-27T21:14:22.392Z,94081.90
2019-01-27T21:16:49.032Z,94079.42
2019-01-27T21:19:15.681Z,94072.89
2019-01-27T21:21:42.345Z,94072.63
2019-01-27T21:24:08.992Z,94061.09
2019-01-27T21:26:35.645Z,94054.91
2019-01-27T21:29:02.289Z,94042.63
2019-01-27T21:31:28.936Z,94045.75
2019-01-27T21:33:56.013Z,94056.43
2019-01-27T21:36:22.245Z,94055.13
2019-01-27T21:38:48.885Z,94048.85
2019-01-27T21:41:15.523Z,94055.60
2019-01-27T21:43:42.184Z,94052.16
2019-01-27T21:46:08.829Z,94050.53
2019-01-27T21:48:35.467Z,94054.43
2019-01-27T21:51:02.112Z,94058.86
2019-01-27T21:53:28.753Z,94054.19
2019-01-27T21:55:55.393Z,94064.67
2019-01-27T21:58:22.034Z,94059.31
2019-01-27T22:00:48.692Z,94070.97
2019-01-27T22:03:15.329Z,94079.52
2019-01-27T22:05:41.974Z,94085.25
2019-01-27T22:08:08.612Z,94083.70
2019-01-27T22:10:35.332Z,94091.09
2019-01-27T22:13:02.890Z,94093.13
2019-01-27T22:15:28.605Z,94089.36
2019-01-27T22:17:55.296Z,94098.33
2019-01-27T22:20:21.947Z,94098.81
2019-01-27T22:22:48.614Z,94100.09
2019-01-27T22:25:15.254Z,94100.77
2019-01-27T22:27:41.906Z,94095.29
2019-01-27T22:30:08.552Z,94083.06
2019-01-27T22:32:35.209Z,94076.23
2019-01-27T22:35:01.856Z,94079.95
2019-01-27T22:37:28.491Z,94083.69
2019-01-27T22:39:55.133Z,94070.98
2019-01-27T22:42:21.815Z,94076.82
2019-01-27T22:44:48.452Z,94080.31
2019-01-27T22:47:15.105Z,94093.23
2019-01-27T22:49:41.757Z,94094.56
2019-01-27T22:52:08.403Z,94102.43
2019-01-27T22:54:35.040Z,94094.45
2019-01-27T22:57:01.791Z,94089.38
2019-01-27T22:59:28.433Z,94088.70
2019-01-27T23:01:55.077Z,94079.70
2019-01-27T23:04:21.729Z,94087.87
2019-01-27T23:06:48.410Z,94093.42
2019-01-27T23:09:15.057Z,94089.09
2019-01-27T23:11:41.708Z,94085.39
2019-01-27T23:14:08.350Z,94076.42
2019-01-27T23:16:35.147Z,94081.06
2019-01-27T23:19:01.875Z,94088.20
2019-01-27T23:21:28.526Z,94066.81
2019-01-27T23:23:55.172Z,94061.72
2019-01-27T23:26:21.810Z,94061.83
2019-01-27T23:28:48.496Z,94057.69
2019-01-27T23:31:15.129Z,94053.30
2019-01-27T23:33:41.773Z,94055.39
2019-01-27T23:36:08.429Z,94058.52
2019-01-27T23:38:35.097Z,94054.02
2019-01-27T23:41:01.736Z,94052.93
2019-01-27T23:43:28.390Z,94062.19
2019-01-27T23:45:55.030Z,94070.52
2019-01-27T23:48:22.151Z,94066.76
2019-01-27T23:50:48.371Z,94064.92
2019-01-27T23:53:15.011Z,94062.22
2019-01-27T23:55:41.665Z,94057.63
2019-01-27T23:58:08.303Z,94057.81
